Time;durP1;ratioP1;P1;durP2;ratioP2;P2;SDS_P1;SDS_P2;PMS_P1;PMS_P2;Temp;Humidity;BMP_temperature;BMP_pressure;BME280_temperature;BME280_humidity;BME280_pressure;Samples;Min_cycle;Max_cycle;Signal;HPM_P1;HPM_P2
2022/05/24 00:00:57;;;;;;;;;;;;;;;9.06;71.35;99880.27;1682293;83;21132;-70
2022/05/24 00:03:23;;;;;;;11.50;8.13;;;;;;;9.02;71.93;99877.16;1678992;84;20133;-68
2022/05/24 00:05:50;;;;;;;12.80;9.30;;;;;;;8.92;72.08;99874.82;1679076;84;21145;-69
2022/05/24 00:08:16;;;;;;;;;;;;;;;8.88;72.16;99880.72;1680391;84;21111;-70
2022/05/24 00:10:44;;;;;;;;;;;;;;;8.84;72.24;99883.44;1682969;83;20157;-78
2022/05/24 00:13:11;;;;;;;;;;;;;;;8.75;72.48;99883.53;1682090;84;20187;-71
2022/05/24 00:15:39;;;;;;;10.83;8.33;;;;;;;8.68;72.68;99882.66;1678292;84;20173;-69
2022/05/24 00:18:14;;;;;;;11.73;8.53;;;;;;;8.64;73.01;99888.00;1678147;84;21163;-75
2022/05/24 00:20:49;;;;;;;10.70;8.57;;;;;;;8.64;72.90;99884.53;1671796;84;20994;-69
2022/05/24 00:23:17;;;;;;;12.40;9.10;;;;;;;8.62;72.70;99887.88;1678939;84;20991;-69
2022/05/24 00:25:48;;;;;;;14.77;9.40;;;;;;;8.54;72.70;99885.65;1677865;84;21575;-69
2022/05/24 00:28:16;;;;;;;12.20;9.13;;;;;;;8.51;73.16;99887.84;1681523;84;21091;-69
2022/05/24 00:30:45;;;;;;;15.93;8.40;;;;;;;8.48;73.25;99885.58;1678658;84;21042;-69
2022/05/24 00:33:13;;;;;;;15.07;9.67;;;;;;;8.45;73.25;99889.41;1679671;84;21007;-74
2022/05/24 00:35:41;;;;;;;15.87;10.50;;;;;;;8.42;73.09;99895.11;1673985;84;21502;-83
2022/05/24 00:38:11;;;;;;;15.33;8.40;;;;;;;8.35;72.91;99889.67;1678896;84;21095;-69
2022/05/24 00:40:52;;;;;;;13.43;9.27;;;;;;;8.30;73.15;99891.23;1679968;84;21091;-69
2022/05/24 00:43:52;;;;;;;14.00;10.10;;;;;;;8.27;73.48;99888.45;1676167;85;21020;-70
2022/05/24 00:46:51;;;;;;;15.97;9.40;;;;;;;8.25;73.61;99883.84;1679516;84;21386;-68
2022/05/24 00:49:34;;;;;;;13.83;9.50;;;;;;;8.23;73.92;99888.52;1675003;84;21143;-68
2022/05/24 00:52:26;;;;;;;10.53;8.67;;;;;;;8.22;74.21;99886.84;1676189;84;21059;-69
2022/05/24 00:56:27;;;;;;;16.43;9.80;;;;;;;8.24;74.30;99887.48;1774375;79;22196;-68
2022/05/24 00:59:02;;;;;;;13.27;10.63;;;;;;;8.22;74.24;99895.33;1714378;83;20994;-68
2022/05/24 01:01:39;;;;;;;13.07;10.57;;;;;;;8.19;74.13;99897.83;1711253;82;20997;-69
2022/05/24 01:04:13;;;;;;;14.27;9.43;;;;;;;8.18;74.07;99897.01;1720802;82;21092;-72
2022/05/24 01:06:39;;;;;;;12.13;9.80;;;;;;;8.14;74.18;99905.53;1716922;82;21564;-69
2022/05/24 01:09:11;;;;;;;13.40;10.03;;;;;;;8.10;74.40;99905.08;1737709;82;21543;-69
2022/05/24 01:11:42;;;;;;;13.63;9.43;;;;;;;8.07;74.64;99903.28;1723867;82;20982;-69
2022/05/24 01:14:10;;;;;;;18.57;9.33;;;;;;;8.08;74.78;99903.11;1709460;82;21151;-68
2022/05/24 01:16:36;;;;;;;10.97;9.87;;;;;;;8.09;74.85;99906.58;1716606;82;21053;-70
2022/05/24 01:19:05;;;;;;;14.03;9.55;;;;;;;8.09;74.99;99912.70;1714537;82;21037;-83
2022/05/24 01:21:32;;;;;;;15.27;11.13;;;;;;;8.09;74.95;99911.89;1718221;83;21303;-73
2022/05/24 01:24:13;;;;;;;13.83;9.77;;;;;;;8.06;74.94;99912.24;1710600;83;21060;-71
2022/05/24 01:26:57;;;;;;;18.50;10.30;;;;;;;8.06;75.08;99909.11;1706919;83;21192;-71
2022/05/24 01:29:26;;;;;;;13.10;10.33;;;;;;;8.04;74.97;99900.47;1717159;83;21126;-74
2022/05/24 01:37:28;;;;;;;14.57;10.07;;;;;;;7.99;75.27;99906.34;1722847;82;21053;-69
2022/05/24 01:39:59;;;;;;;15.43;10.07;;;;;;;7.99;75.36;99905.53;1716733;82;21022;-69
2022/05/24 01:42:27;;;;;;;11.10;9.37;;;;;;;7.96;75.22;99909.34;1720593;82;21584;-69
2022/05/24 01:45:11;;;;;;;17.13;11.57;;;;;;;7.91;75.29;99909.09;1733225;82;21061;-68
2022/05/24 01:47:42;;;;;;;16.50;10.57;;;;;;;7.89;75.41;99909.78;1747277;81;21002;-78
2022/05/24 01:50:13;;;;;;;12.30;10.17;;;;;;;7.85;75.44;99905.00;1749744;81;21459;-74
2022/05/24 01:52:45;;;;;;;12.00;10.03;;;;;;;7.80;75.39;99901.06;1726383;81;21057;-78
2022/05/24 01:55:19;;;;;;;15.83;11.10;;;;;;;7.79;75.57;99904.70;1733120;81;22108;-74
2022/05/24 01:57:50;;;;;;;12.73;9.97;;;;;;;7.79;75.67;99907.36;1696643;83;21057;-71
2022/05/24 02:00:18;;;;;;;13.33;9.30;;;;;;;7.82;75.73;99907.52;1635934;86;21586;-69
2022/05/24 02:02:45;;;;;;;13.53;9.67;;;;;;;7.83;75.83;99910.99;1663037;85;21133;-71
2022/05/24 02:05:15;;;;;;;17.53;11.43;;;;;;;7.83;75.35;99914.45;1683812;84;21002;-73
2022/05/24 02:07:42;;;;;;;12.10;9.67;;;;;;;7.79;75.07;99917.16;1681103;84;21113;-70
2022/05/24 02:10:08;;;;;;;14.98;10.35;;;;;;;7.76;75.15;99920.16;1684280;84;21109;-71
2022/05/24 02:12:39;;;;;;;14.28;11.33;;;;;;;7.76;75.30;99916.18;1668970;85;21153;-69
2022/05/24 02:15:14;;;;;;;15.43;11.47;;;;;;;7.77;75.25;99915.19;1658955;85;21141;-73
2022/05/24 02:17:58;;;;;;;14.33;10.53;;;;;;;7.80;75.39;99917.49;1659180;85;21164;-69
2022/05/24 02:20:30;;;;;;;15.97;10.77;;;;;;;7.86;75.40;99926.56;1666194;85;21379;-71
2022/05/24 02:22:57;;;;;;;17.23;11.77;;;;;;;7.89;75.33;99923.52;1660949;85;21538;-70
2022/05/24 02:25:39;;;;;;;11.40;10.20;;;;;;;7.90;75.18;99929.98;1713442;82;21478;-69
2022/05/24 02:28:10;;;;;;;15.10;11.27;;;;;;;7.91;75.21;99929.48;1716553;82;21034;-68
2022/05/24 02:30:50;;;;;;;17.47;11.43;;;;;;;7.92;75.22;99927.97;1714100;82;21017;-69
2022/05/24 02:33:18;;;;;;;16.63;11.67;;;;;;;7.95;75.36;99935.58;1712478;83;21561;-72
2022/05/24 02:35:45;;;;;;;15.37;11.30;;;;;;;8.00;75.48;99932.37;1702788;83;21084;-69
2022/05/24 02:38:11;;;;;;;17.62;12.13;;;;;;;8.03;75.26;99937.84;1705382;83;21006;-69
2022/05/24 02:43:22;;;;;;;17.87;11.80;;;;;;;8.04;75.68;99949.58;1699127;83;20173;-69
2022/05/24 02:45:49;;;;;;;;;;;;;;;8.02;76.21;99948.13;1702636;83;21025;-69
2022/05/24 02:48:15;;;;;;;14.63;11.37;;;;;;;8.12;76.47;99944.72;1699708;82;20138;-69
2022/05/24 02:50:43;;;;;;;20.23;12.40;;;;;;;8.26;76.70;99942.55;1698976;82;21129;-69
2022/05/24 02:53:11;;;;;;;22.30;11.70;;;;;;;8.71;76.95;99943.89;1698684;83;21021;-70
2022/05/24 02:55:38;;;;;;;19.83;11.77;;;;;;;9.39;75.15;99948.92;1703483;82;21074;-69
2022/05/24 02:58:04;;;;;;;17.30;11.93;;;;;;;10.18;72.57;99946.07;1717427;82;21015;-69
2022/05/24 03:00:31;;;;;;;20.00;12.47;;;;;;;11.01;69.79;99949.26;1706868;82;21510;-71
2022/05/24 03:02:59;;;;;;;20.10;12.70;;;;;;;11.80;66.01;99948.55;1700741;82;20998;-72
2022/05/24 03:05:26;;;;;;;17.82;12.00;;;;;;;12.53;62.76;99937.47;1698628;82;21478;-70
2022/05/24 03:10:39;;;;;;;16.87;11.83;;;;;;;13.87;58.67;99945.55;1695802;83;21254;-71
2022/05/24 03:15:53;;;;;;;18.10;12.45;;;;;;;15.04;54.16;99954.09;1710922;82;21019;-70
2022/05/24 03:18:21;;;;;;;16.50;11.63;;;;;;;15.60;52.28;99951.53;1716818;82;21023;-70
2022/05/24 03:20:48;;;;;;;18.82;12.58;;;;;;;16.10;50.42;99947.61;1692413;83;21015;-70
2022/05/24 03:23:16;;;;;;;15.48;11.63;;;;;;;16.51;48.36;99948.52;1688303;83;22203;-70
2022/05/24 03:25:43;;;;;;;15.72;10.40;;;;;;;16.81;46.25;99946.97;1686136;84;21129;-70
2022/05/24 03:28:11;;;;;;;15.95;11.48;;;;;;;16.97;45.68;99948.64;1683035;84;21511;-70
2022/05/24 03:30:43;;;;;;;18.32;11.88;;;;;;;17.08;45.13;99952.66;1692241;84;21322;-71
2022/05/24 03:33:11;;;;;;;15.68;10.58;;;;;;;17.18;44.58;99953.38;1651658;86;21144;-69
2022/05/24 03:35:39;;;;;;;20.37;11.50;;;;;;;17.23;44.54;99950.75;1648538;85;21288;-69
2022/05/24 03:38:06;;;;;;;19.82;12.30;;;;;;;17.28;44.63;99952.20;1651968;85;21042;-69
2022/05/24 03:40:33;;;;;;;18.42;11.83;;;;;;;17.44;44.33;99949.26;1648026;85;21054;-69
2022/05/24 03:43:02;;;;;;;23.85;12.55;;;;;;;17.52;44.07;99950.73;1655943;85;21041;-72
2022/05/24 03:45:31;;;;;;;19.15;11.73;;;;;;;17.56;44.95;99956.45;1646567;85;21055;-70
2022/05/24 03:47:57;;;;;;;17.75;12.25;;;;;;;17.79;44.18;99958.17;1647905;86;21048;-70
2022/05/24 03:50:23;;;;;;;19.20;11.38;;;;;;;17.88;44.04;99964.83;1636835;87;21510;-70
2022/05/24 03:52:50;;;;;;;18.82;12.05;;;;;;;17.98;43.71;99957.42;1646649;86;21033;-70
2022/05/24 03:55:16;;;;;;;16.90;11.53;;;;;;;18.12;43.58;99960.58;1642953;86;21136;-78
2022/05/24 03:58:01;;;;;;;16.15;10.90;;;;;;;18.25;43.47;99958.88;1691579;84;21020;-70
2022/05/24 04:00:39;;;;;;;22.67;12.15;;;;;;;18.40;42.92;99953.72;1690281;83;21139;-69
2022/05/24 04:03:08;;;;;;;13.62;10.45;;;;;;;18.39;42.91;99958.81;1674303;84;21100;-70
2022/05/24 04:05:36;;;;;;;14.40;9.38;;;;;;;18.23;43.29;99962.36;1677265;84;21049;-69
2022/05/24 04:08:06;;;;;;;16.12;10.55;;;;;;;18.11;44.33;99957.62;1672419;84;21061;-70
2022/05/24 04:10:36;;;;;;;15.10;8.98;;;;;;;18.48;43.94;99955.17;1679160;84;21053;-69
2022/05/24 04:13:03;;;;;;;15.90;9.78;;;;;;;18.74;42.80;99959.01;1671803;82;21036;-70
2022/05/24 04:15:31;;;;;;;14.55;9.65;;;;;;;18.63;42.72;99962.11;1675765;84;21037;-69
2022/05/24 04:17:57;;;;;;;15.95;10.38;;;;;;;18.61;43.36;99968.29;1698209;84;21021;-69
2022/05/24 04:20:26;;;;;;;11.18;9.28;;;;;;;18.73;42.80;99964.66;1682643;84;21025;-70
2022/05/24 04:22:55;;;;;;;13.90;8.95;;;;;;;18.86;42.74;99973.75;1665692;85;21114;-69
2022/05/24 04:25:25;;;;;;;11.68;9.03;;;;;;;19.06;42.39;99973.15;1679197;84;21137;-72
2022/05/24 04:27:51;;;;;;;15.50;9.33;;;;;;;19.16;41.92;99967.88;1686532;85;21670;-70
2022/05/24 04:30:21;;;;;;;14.25;9.45;;;;;;;19.19;41.69;99969.23;1667525;84;21580;-70
2022/05/24 04:32:49;;;;;;;12.28;8.43;;;;;;;19.16;41.73;99974.62;1666348;84;21107;-74
2022/05/24 04:35:15;;;;;;;;;;;;;;;19.10;41.81;99985.11;1712314;82;21605;-70
2022/05/24 04:37:41;;;;;;;11.40;8.63;;;;;;;19.25;41.78;99984.45;1713978;82;20588;-70
2022/05/24 04:40:09;;;;;;;13.83;8.78;;;;;;;19.47;41.67;99990.33;1700715;82;21033;-70
2022/05/24 04:42:36;;;;;;;13.22;7.87;;;;;;;19.69;40.34;99988.38;1706713;82;21046;-72
2022/05/24 04:45:10;;;;;;;11.57;8.85;;;;;;;19.82;40.82;99990.68;1719634;82;21006;-72
2022/05/24 04:47:37;;;;;;;10.68;8.08;;;;;;;20.01;40.13;99984.88;1702228;82;21011;-70
2022/05/24 04:50:09;;;;;;;11.70;8.05;;;;;;;20.02;39.25;99984.63;1711549;82;21026;-71
2022/05/24 04:52:39;;;;;;;13.03;7.58;;;;;;;19.74;40.02;99987.63;1710183;82;21331;-73
2022/05/24 04:55:11;;;;;;;8.13;6.53;;;;;;;19.65;39.77;99985.91;1707288;82;21102;-72
2022/05/24 04:57:38;;;;;;;8.65;7.03;;;;;;;19.66;39.37;99994.28;1707390;82;21592;-70
2022/05/24 05:00:06;;;;;;;11.22;7.45;;;;;;;19.63;38.96;99990.22;1707434;82;21059;-70
2022/05/24 05:02:34;;;;;;;11.40;7.08;;;;;;;19.67;39.84;99989.72;1697370;82;21072;-73
2022/05/24 05:05:00;;;;;;;;;;;;;;;19.78;38.10;99988.22;1696340;82;21080;-70
2022/05/24 05:07:28;;;;;;;10.32;5.28;;;;;;;19.87;38.37;99989.89;1707634;82;20504;-74
2022/05/24 05:09:54;;;;;;;6.72;5.03;;;;;;;20.08;36.57;99988.70;1709773;83;21080;-71
2022/05/24 05:12:20;;;;;;;9.80;5.97;;;;;;;20.06;35.89;99991.69;1680514;83;21263;-69
2022/05/24 05:14:47;;;;;;;5.42;4.78;;;;;;;20.04;36.87;99989.75;1627391;86;21070;-71
2022/05/24 05:17:18;;;;;;;4.20;3.70;;;;;;;20.02;36.72;99999.50;1628533;88;21198;-75
2022/05/24 05:19:47;;;;;;;6.72;2.42;;;;;;;20.09;33.95;99997.91;1628678;88;21051;-73
2022/05/24 05:22:14;;;;;;;4.72;2.70;;;;;;;20.07;33.33;100000.61;1628952;84;21009;-73
2022/05/24 05:24:40;;;;;;;6.25;3.47;;;;;;;19.74;32.62;99999.79;1736091;80;21015;-73
2022/05/24 05:27:06;;;;;;;3.58;2.42;;;;;;;19.53;33.64;99997.41;1747779;81;21114;-69
2022/05/24 05:32:26;;;;;;;5.33;2.70;;;;;;;19.67;33.71;100006.74;1743468;81;20975;-70
2022/05/24 05:34:51;;;;;;;2.55;2.45;;;;;;;19.97;33.58;100010.27;1715472;82;21059;-72
2022/05/24 05:37:18;;;;;;;3.70;1.95;;;;;;;20.21;32.78;100005.83;1697330;83;21111;-70
2022/05/24 05:39:46;;;;;;;2.60;2.37;;;;;;;20.14;32.75;100011.48;1711394;83;21075;-71
2022/05/24 05:42:14;;;;;;;4.17;2.10;;;;;;;20.07;32.80;100004.66;1713307;83;21012;-71
2022/05/24 05:44:41;;;;;;;4.90;2.70;;;;;;;19.72;31.25;100001.42;1718982;81;21046;-70
2022/05/24 05:47:07;;;;;;;;;;;;;;;19.41;32.43;99997.58;1745164;81;21034;-73
2022/05/24 05:49:33;;;;;;;3.90;2.30;;;;;;;19.23;32.66;100001.42;1737977;81;20678;-70
2022/05/24 05:52:01;;;;;;;3.22;2.10;;;;;;;18.96;34.13;100001.41;1736177;81;21014;-70
2022/05/24 05:54:27;;;;;;;4.35;2.05;;;;;;;18.88;34.45;99998.62;1736853;81;21561;-74
2022/05/24 05:56:54;;;;;;;4.00;2.25;;;;;;;18.92;33.17;99998.93;1683603;82;21571;-72
2022/05/24 05:59:21;;;;;;;2.55;2.15;;;;;;;19.03;33.51;99997.98;1690089;84;21095;-70
2022/05/24 06:01:47;;;;;;;3.30;2.20;;;;;;;19.17;32.94;99997.86;1650840;85;21149;-71
2022/05/24 06:04:14;;;;;;;2.58;1.67;;;;;;;19.17;32.75;99991.64;1653155;85;21073;-73
2022/05/24 06:06:46;;;;;;;;;;;;;;;19.06;31.26;99989.36;1651019;85;21628;-70
2022/05/24 06:09:13;;;;;;;5.45;2.12;;;;;;;18.72;31.66;99948.97;1631028;86;20175;-75
2022/05/24 06:11:41;;;;;;;6.62;2.62;;;;;;;18.95;32.20;99994.36;1651595;85;21045;-70
2022/05/24 06:14:10;;;;;;;2.58;1.77;;;;;;;19.10;32.38;99993.72;1646812;85;21034;-73
2022/05/24 06:16:38;;;;;;;5.45;1.65;;;;;;;19.40;31.69;99997.28;1633492;86;21503;-74
2022/05/24 06:19:06;;;;;;;1.95;1.60;;;;;;;19.86;28.49;99998.28;1661310;85;21121;-79
2022/05/24 06:21:33;;;;;;;1.72;1.27;;;;;;;20.17;27.35;99996.61;1653252;85;21101;-71
2022/05/24 06:24:03;;;;;;;4.95;1.10;;;;;;;20.10;26.73;99987.38;1667388;85;21130;-71
2022/05/24 06:26:31;;;;;;;3.65;1.42;;;;;;;19.93;26.71;99994.80;1642629;86;21033;-71
2022/05/24 06:28:57;;;;;;;3.75;0.93;;;;;;;19.98;26.54;99998.36;1668730;85;21496;-71
2022/05/24 06:31:24;;;;;;;2.30;1.10;;;;;;;20.16;24.94;99997.16;1650761;85;21119;-70
2022/05/24 06:33:50;;;;;;;3.35;0.75;;;;;;;20.36;23.08;99997.00;1669828;84;21544;-73
2022/05/24 06:36:16;;;;;;;;;;;;;;;20.33;22.64;100002.95;1652652;85;21026;-70
2022/05/24 06:38:43;;;;;;;0.97;0.73;;;;;;;20.31;22.72;99995.09;1651037;85;20143;-73
2022/05/24 06:41:09;;;;;;;1.12;0.60;;;;;;;20.25;22.45;99996.14;1655328;85;21002;-71
2022/05/24 06:43:36;;;;;;;0.75;0.57;;;;;;;20.08;23.17;99994.11;1653012;85;21111;-71
2022/05/24 06:46:07;;;;;;;0.57;0.42;;;;;;;19.79;23.53;99945.75;1628713;86;21030;-72
2022/05/24 06:48:31;;;;;;;1.27;0.40;;;;;;;20.09;22.84;99998.45;1642976;86;21919;-70
2022/05/24 06:50:57;;;;;;;;;;;;;;;19.97;22.27;99988.63;1650131;86;21638;-71
2022/05/24 06:53:23;;;;;;;0.20;0.20;;;;;;;20.12;22.89;99994.70;1637253;86;20116;-71
2022/05/24 06:55:49;;;;;;;;;;;;;;;19.96;22.12;100012.69;1641930;85;21565;-70
2022/05/24 06:58:17;;;;;;;0.95;0.35;;;;;;;19.81;22.57;99991.73;1666603;85;20139;-70
2022/05/24 07:03:28;;;;;;;0.93;0.20;;;;;;;20.08;22.11;100000.88;1684076;83;21123;-74
2022/05/24 07:05:54;;;;;;;2.75;0.30;;;;;;;20.38;21.76;100002.45;1688043;83;21080;-73
2022/05/24 07:08:20;;;;;;;;;;;;;;;20.34;20.66;99993.22;1685892;83;20981;-73
2022/05/24 07:10:48;;;;;;;0.53;0.17;;;;;;;20.09;21.11;99999.27;1696440;83;20136;-78
2022/05/24 07:13:18;;;;;;;;;;;;;;;20.01;21.24;100004.62;1660402;83;21009;-71
2022/05/24 07:15:46;;;;;;;2.30;0.30;;;;;;;20.03;21.20;100007.07;1653934;85;20172;-72
2022/05/24 07:18:12;;;;;;;0.75;0.20;;;;;;;19.80;21.09;99997.43;1664375;85;21024;-69
2022/05/24 07:20:38;;;;;;;1.30;0.47;;;;;;;19.73;21.76;100007.09;1655490;85;21100;-75
2022/05/24 07:23:15;;;;;;;3.42;0.40;;;;;;;19.79;21.61;100012.81;1668763;83;21029;-70
2022/05/24 07:25:45;;;;;;;2.02;0.25;;;;;;;19.77;21.20;100016.86;1708464;83;21050;-74
2022/05/24 07:28:17;;;;;;;1.95;0.20;;;;;;;19.65;21.48;100019.16;1699740;83;21089;-75
2022/05/24 07:30:48;;;;;;;1.12;0.30;;;;;;;19.54;21.92;100004.46;1699722;83;21085;-71
2022/05/24 07:33:16;;;;;;;1.45;0.20;;;;;;;19.34;22.17;100007.22;1713059;83;21018;-71
2022/05/24 07:35:43;;;;;;;5.58;0.40;;;;;;;19.24;21.92;100012.53;1710237;83;21667;-70
2022/05/24 07:38:11;;;;;;;0.47;0.47;;;;;;;19.09;21.94;99998.31;1697941;83;21533;-70
2022/05/24 07:46:10;;;;;;;0.95;0.40;;;;;;;18.67;22.66;100023.97;1661542;84;20983;-73
2022/05/24 07:48:36;;;;;;;1.52;0.33;;;;;;;18.56;22.90;100029.48;1696307;83;21122;-71
2022/05/24 07:51:03;;;;;;;0.85;0.20;;;;;;;18.44;23.15;100022.31;1694286;84;21010;-70
2022/05/24 07:53:31;;;;;;;3.47;0.40;;;;;;;18.40;23.30;100012.24;1695469;83;21027;-71
2022/05/24 07:55:58;;;;;;;3.70;0.20;;;;;;;18.38;23.95;100011.68;1667896;84;20970;-70
2022/05/24 07:58:25;;;;;;;0.45;0.30;;;;;;;18.32;23.93;100001.34;1686073;83;21083;-70
2022/05/24 08:00:58;;;;;;;1.92;0.35;;;;;;;18.26;24.00;100006.39;1701896;83;20976;-76
2022/05/24 08:03:25;;;;;;;3.42;0.20;;;;;;;18.21;24.44;100004.95;1690028;83;21004;-76
2022/05/24 08:05:51;;;;;;;2.52;0.33;;;;;;;18.24;23.89;100000.42;1690523;83;21076;-74
2022/05/24 08:08:18;;;;;;;2.50;0.65;;;;;;;18.24;23.84;100006.63;1689219;83;21032;-73
2022/05/24 08:10:45;;;;;;;0.53;0.50;;;;;;;18.27;23.97;100008.00;1691994;83;21024;-75
2022/05/24 08:13:16;;;;;;;1.00;0.42;;;;;;;18.22;24.36;100002.55;1716941;82;21005;-71
2022/05/24 08:15:43;;;;;;;3.02;0.57;;;;;;;18.20;24.21;100001.98;1664699;84;21061;-71
2022/05/24 08:18:09;;;;;;;5.90;0.85;;;;;;;18.11;24.48;99996.72;1670849;85;21489;-71
2022/05/24 08:20:38;;;;;;;6.30;0.82;;;;;;;18.12;24.85;100007.27;1657320;85;21021;-75
2022/05/24 08:23:06;;;;;;;5.60;1.65;;;;;;;18.16;24.84;100008.91;1655692;85;21004;-71
2022/05/24 08:25:33;;;;;;;5.78;0.72;;;;;;;18.20;25.69;100015.48;1650515;85;21032;-70
2022/05/24 08:28:02;;;;;;;4.87;0.98;;;;;;;18.25;24.89;100008.28;1690136;83;21708;-72
2022/05/24 08:30:31;;;;;;;4.37;0.37;;;;;;;18.31;25.60;100009.17;1690348;83;21028;-71
2022/05/24 08:32:58;;;;;;;1.07;0.57;;;;;;;18.39;25.73;100003.34;1691175;85;21083;-76
2022/05/24 08:35:25;;;;;;;2.62;0.30;;;;;;;18.44;25.80;100004.77;1715444;83;20998;-71
2022/05/24 08:37:51;;;;;;;0.80;0.40;;;;;;;18.52;25.35;100002.72;1721668;83;21090;-72
2022/05/24 08:40:22;;;;;;;2.12;0.42;;;;;;;18.56;25.81;99999.26;1702668;82;21048;-73
2022/05/24 08:43:13;;;;;;;4.40;0.88;;;;;;;18.58;25.38;100004.41;1721918;83;21066;-76
2022/05/24 08:48:55;;;;;;;0.30;0.20;;;;;;;18.51;25.16;100011.86;1720244;83;22163;-75
2022/05/24 08:51:28;;;;;;;4.35;0.90;;;;;;;18.47;25.40;100008.30;1721472;83;21040;-71
2022/05/24 08:54:12;;;;;;;0.65;0.50;;;;;;;18.47;25.50;100004.80;1703776;83;20980;-71
2022/05/24 08:56:55;;;;;;;2.62;0.33;;;;;;;18.47;25.51;100004.25;1713364;83;21103;-71
2022/05/24 08:59:27;;;;;;;0.95;0.55;;;;;;;18.43;25.68;100009.87;1721310;83;21633;-72
2022/05/24 09:01:56;;;;;;;2.65;1.00;;;;;;;18.42;25.55;100014.16;1721333;83;21518;-71
2022/05/24 09:04:23;;;;;;;1.60;0.50;;;;;;;18.39;25.77;100009.28;1720516;83;21006;-73
2022/05/24 09:07:07;;;;;;;3.90;0.50;;;;;;;18.40;26.10;100013.08;1718891;83;21061;-72
2022/05/24 09:10:05;;;;;;;1.00;0.30;;;;;;;18.44;25.83;100002.07;1719304;83;21550;-72
2022/05/24 09:13:13;;;;;;;1.05;0.55;;;;;;;18.53;25.89;100005.14;1717095;82;20973;-71
2022/05/24 09:16:17;;;;;;;2.60;0.30;;;;;;;18.58;26.19;99997.12;1715749;82;21027;-73
2022/05/24 09:18:55;;;;;;;0.70;0.30;;;;;;;18.67;25.64;100000.22;1706096;82;21080;-70
2022/05/24 09:21:29;;;;;;;0.90;0.30;;;;;;;18.64;25.84;99998.81;1705771;82;21599;-75
2022/05/24 09:24:15;;;;;;;3.47;0.60;;;;;;;18.69;25.43;99999.43;1718761;83;21467;-70
2022/05/24 09:27:07;;;;;;;1.12;0.20;;;;;;;18.69;25.47;99991.33;1721649;83;21157;-76
2022/05/24 09:29:58;;;;;;;2.05;0.23;;;;;;;18.64;25.72;99995.30;1721800;82;21027;-72
2022/05/24 09:32:32;;;;;;;0.98;0.20;;;;;;;18.65;26.17;100001.00;1720763;83;20968;-71
2022/05/24 09:35:23;;;;;;;0.50;0.50;;;;;;;18.66;26.38;99999.92;1714767;82;21567;-72
2022/05/24 09:38:14;;;;;;;0.78;0.47;;;;;;;18.68;26.21;99989.17;1693550;83;21010;-71
2022/05/24 09:41:02;;;;;;;0.57;0.20;;;;;;;18.69;25.94;99987.28;1702384;83;21518;-73
2022/05/24 09:43:33;;;;;;;2.45;0.20;;;;;;;18.73;25.94;99995.16;1721743;82;21011;-70
2022/05/24 09:46:07;;;;;;;1.17;0.70;;;;;;;18.77;25.84;99992.23;1714567;82;21035;-71
2022/05/24 09:48:40;;;;;;;0.77;0.20;;;;;;;18.77;26.07;99990.88;1715726;82;21118;-71
2022/05/24 09:51:11;;;;;;;0.42;0.20;;;;;;;18.74;25.62;99996.80;1724920;82;21514;-71
2022/05/24 09:53:51;;;;;;;4.78;0.65;;;;;;;18.68;26.35;99987.83;1721752;83;20999;-70
2022/05/24 09:56:25;;;;;;;0.60;0.40;;;;;;;18.70;26.08;99986.20;1717451;83;21047;-73
2022/05/24 09:59:03;;;;;;;1.57;0.20;;;;;;;18.75;26.23;99987.63;1709335;82;20979;-73
2022/05/24 10:01:38;;;;;;;2.63;0.53;;;;;;;18.83;26.45;99978.30;1721582;83;21034;-72
2022/05/24 10:04:30;;;;;;;0.30;0.20;;;;;;;18.90;26.67;99988.92;1713160;83;21015;-71
2022/05/24 10:07:05;;;;;;;1.22;0.20;;;;;;;18.90;26.25;99990.27;1716240;83;21087;-70
2022/05/24 10:09:41;;;;;;;1.27;0.30;;;;;;;18.84;26.37;99991.55;1721789;83;21575;-70
2022/05/24 10:12:15;;;;;;;0.68;0.40;;;;;;;18.90;26.55;99994.32;1709708;82;21061;-71
2022/05/24 10:14:53;;;;;;;2.58;0.47;;;;;;;18.90;26.70;99989.73;1716257;82;21095;-75
2022/05/24 10:17:43;;;;;;;0.88;0.33;;;;;;;18.85;26.84;99986.45;1716764;82;21097;-71
2022/05/24 10:20:27;;;;;;;2.77;0.40;;;;;;;18.86;26.42;99979.16;1720799;83;21046;-72
2022/05/24 10:23:12;;;;;;;0.78;0.57;;;;;;;18.88;26.43;99982.95;1732158;81;21047;-71
2022/05/24 10:25:45;;;;;;;0.85;0.20;;;;;;;18.94;26.66;99979.24;1702560;82;21023;-70
2022/05/24 10:28:38;;;;;;;1.05;0.60;;;;;;;18.98;26.39;99981.71;1703152;82;21082;-72
2022/05/24 10:31:27;;;;;;;0.65;0.60;;;;;;;19.04;26.30;99980.18;1723849;82;20985;-70
2022/05/24 10:40:27;;;;;;;1.25;0.30;;;;;;;19.16;26.96;99973.82;1673733;85;21013;-71
2022/05/24 10:43:14;;;;;;;1.20;0.28;;;;;;;19.21;26.57;99967.09;1674185;84;21029;-72
2022/05/24 10:45:51;;;;;;;3.80;0.20;;;;;;;19.26;26.53;99970.66;1666466;85;21012;-74
2022/05/24 10:48:26;;;;;;;0.68;0.30;;;;;;;19.36;26.77;99970.49;1668094;85;21104;-71
2022/05/24 10:51:02;;;;;;;0.20;0.20;;;;;;;19.38;26.93;99967.83;1669465;85;20985;-73
2022/05/24 10:53:47;;;;;;;0.93;0.20;;;;;;;19.43;26.70;99971.11;1669045;85;21085;-71
2022/05/24 10:56:33;;;;;;;0.78;0.30;;;;;;;19.45;26.90;99974.37;1694936;84;21074;-70
2022/05/24 10:59:30;;;;;;;3.87;0.37;;;;;;;19.49;26.87;99978.18;1682238;84;21027;-72
2022/05/24 11:02:02;;;;;;;3.00;0.20;;;;;;;19.51;26.57;99978.73;1698146;84;21034;-72
2022/05/24 11:04:49;;;;;;;0.42;0.30;;;;;;;19.52;26.70;99974.98;1710139;83;21012;-71
2022/05/24 11:07:19;;;;;;;0.40;0.23;;;;;;;19.54;26.19;99971.48;1712252;84;21083;-72
2022/05/24 11:10:03;;;;;;;0.68;0.20;;;;;;;19.57;26.14;99970.98;1711210;82;21091;-71
2022/05/24 11:12:31;;;;;;;1.27;0.20;;;;;;;19.67;26.52;99968.09;1692374;82;21048;-70
2022/05/24 11:15:32;;;;;;;0.68;0.23;;;;;;;19.77;26.12;99959.53;1694099;82;21027;-70
2022/05/24 11:17:55;;;;;;;3.70;0.50;;;;;;;19.83;26.18;99959.87;1707336;82;21004;-71
2022/05/24 11:20:25;;;;;;;0.68;0.20;;;;;;;19.92;25.95;99956.67;1693492;84;21030;-73
2022/05/24 11:23:11;;;;;;;9.53;0.37;;;;;;;19.95;26.35;99967.80;1709379;83;20987;-71
2022/05/24 11:25:53;;;;;;;1.37;0.13;;;;;;;20.01;26.69;99964.05;1698489;83;21027;-74
2022/05/24 11:28:25;;;;;;;5.67;1.20;;;;;;;20.02;25.78;99968.39;1711245;83;21511;-73
2022/05/24 11:30:55;;;;;;;1.00;0.20;;;;;;;19.99;26.07;99972.95;1693069;82;21065;-71
2022/05/24 11:33:42;;;;;;;1.37;0.23;;;;;;;19.98;25.80;99964.55;1710732;82;20977;-72
2022/05/24 11:36:36;;;;;;;2.08;0.20;;;;;;;19.96;26.12;99964.00;1685042;84;21063;-72
2022/05/24 11:39:11;;;;;;;3.60;0.25;;;;;;;19.97;26.60;99962.94;1715598;82;21073;-72
2022/05/24 11:41:38;;;;;;;1.25;0.30;;;;;;;20.01;26.07;99964.05;1689969;82;21001;-77
2022/05/24 11:44:10;;;;;;;3.15;0.78;;;;;;;20.10;26.41;99969.80;1676155;83;21459;-72
2022/05/24 11:46:44;;;;;;;1.15;0.40;;;;;;;20.24;26.26;99964.73;1708127;82;21015;-72
2022/05/24 11:49:31;;;;;;;0.85;0.42;;;;;;;20.27;26.03;99958.80;1712243;82;21040;-72
2022/05/24 11:52:00;;;;;;;0.25;0.10;;;;;;;20.27;25.96;99966.92;1711674;83;21012;-70
2022/05/24 11:54:32;;;;;;;0.60;0.20;;;;;;;20.22;26.19;99966.34;1711838;84;21127;-71
2022/05/24 11:57:10;;;;;;;0.33;0.30;;;;;;;20.18;26.33;99969.30;1711944;83;21467;-73
2022/05/24 11:59:46;;;;;;;0.53;0.20;;;;;;;20.14;26.43;99969.55;1711881;82;21072;-71
2022/05/24 12:07:54;;;;;;;2.47;0.40;;;;;;;20.10;26.27;99970.31;1712654;82;21094;-73
2022/05/24 12:08:31;;;;;;;0.60;0.30;;;;;;;19.99;26.68;99965.39;1688349;85;21576;-71
2022/05/24 12:11:18;;;;;;;1.80;0.20;;;;;;;20.05;26.76;99962.18;1682874;85;21173;-70
2022/05/24 12:13:54;;;;;;;0.20;0.20;;;;;;;20.12;26.56;99959.52;1654602;85;21058;-72
2022/05/24 12:16:42;;;;;;;6.97;0.20;;;;;;;20.18;26.01;99967.13;1706214;84;21004;-73
2022/05/24 12:19:10;;;;;;;;;;;;;;;20.18;26.18;99957.12;1705237;82;21502;-72
2022/05/24 12:21:58;;;;;;;2.35;0.28;;;;;;;20.27;26.45;99959.32;1711339;82;20479;-70
2022/05/24 12:24:44;;;;;;;3.25;0.30;;;;;;;20.23;25.90;99966.62;1693729;82;21080;-72
2022/05/24 12:27:49;;;;;;;2.83;0.20;;;;;;;20.16;26.39;99967.94;1685669;82;21108;-73
2022/05/24 12:30:32;;;;;;;0.20;0.20;;;;;;;20.15;26.46;99961.69;1709021;84;21687;-76
2022/05/24 12:33:18;;;;;;;0.40;0.10;;;;;;;20.13;25.77;99973.31;1696221;82;21576;-71
2022/05/24 12:35:54;;;;;;;0.47;0.20;;;;;;;20.09;25.83;99965.98;1709588;84;21051;-74